Montague, Canada
Current Conditions -  °F | °C
As of 9:00 AM on Wednesday 22 Oct 2014 (Local Time) from CYYG Reporting Station
Broken Clouds Broken Clouds  
Wind Chill: 40°   Ceiling: 13000
Heat Index: 45°   Visibility: 15mi
Dew Point: 41°   Wind: 9mph
Humidity: 87%   Direction: 60°ENE
Pressure: 30.39"   Gusts: NA
Location:  46.17°N, 62.65°W
Report Text: CYYG 221200Z 06008KT 15SM FEW025 BKN130 BKN250 07/05 A3039 RMK SC1AC5CI1 SLP292
Loading
Personal Weather Stations






























Interactive Weather Map
Tropical Storm Tracking
New forecast layout! Learn more

10-Day Weather Forecast

Advertisements
Track Severe Weather on mobile